sensor_id;sensor_type;location;lat;lon;timestamp;P1;durP1;ratioP1;P2;durP2;ratioP2
14381;SDS011;7275;50.328;8.720;2022-07-29T00:00:00;1.55;;;1.20;;
14381;SDS011;7275;50.328;8.720;2022-07-29T00:02:28;1.95;;;1.23;;
14381;SDS011;7275;50.328;8.720;2022-07-29T00:04:59;3.13;;;1.37;;
14381;SDS011;7275;50.328;8.720;2022-07-29T00:07:27;2.40;;;1.30;;
14381;SDS011;7275;50.328;8.720;2022-07-29T00:09:55;1.52;;;1.25;;
14381;SDS011;7275;50.328;8.720;2022-07-29T00:12:23;2.50;;;1.40;;
14381;SDS011;7275;50.328;8.720;2022-07-29T00:14:52;1.43;;;1.20;;
14381;SDS011;7275;50.328;8.720;2022-07-29T00:17:21;2.97;;;1.40;;
14381;SDS011;7275;50.328;8.720;2022-07-29T00:19:48;3.50;;;1.45;;
14381;SDS011;7275;50.328;8.720;2022-07-29T00:22:18;2.47;;;1.10;;
14381;SDS011;7275;50.328;8.720;2022-07-29T00:24:46;2.63;;;1.37;;
14381;SDS011;7275;50.328;8.720;2022-07-29T00:27:14;2.85;;;1.30;;
14381;SDS011;7275;50.328;8.720;2022-07-29T00:29:42;1.93;;;1.23;;
14381;SDS011;7275;50.328;8.720;2022-07-29T00:32:09;1.93;;;1.20;;
14381;SDS011;7275;50.328;8.720;2022-07-29T00:34:37;3.10;;;1.40;;
14381;SDS011;7275;50.328;8.720;2022-07-29T00:37:32;2.45;;;1.15;;
14381;SDS011;7275;50.328;8.720;2022-07-29T00:39:59;3.42;;;1.30;;
14381;SDS011;7275;50.328;8.720;2022-07-29T00:42:27;1.85;;;1.10;;
14381;SDS011;7275;50.328;8.720;2022-07-29T00:44:54;2.90;;;1.10;;
14381;SDS011;7275;50.328;8.720;2022-07-29T00:47:22;2.70;;;1.30;;
14381;SDS011;7275;50.328;8.720;2022-07-29T00:49:49;1.38;;;1.20;;
14381;SDS011;7275;50.328;8.720;2022-07-29T00:52:17;1.80;;;1.47;;
14381;SDS011;7275;50.328;8.720;2022-07-29T00:54:46;2.03;;;1.50;;
14381;SDS011;7275;50.328;8.720;2022-07-29T00:57:13;2.03;;;1.57;;
14381;SDS011;7275;50.328;8.720;2022-07-29T00:59:41;1.67;;;1.33;;
14381;SDS011;7275;50.328;8.720;2022-07-29T01:02:09;4.07;;;1.70;;
14381;SDS011;7275;50.328;8.720;2022-07-29T01:04:36;3.10;;;1.50;;
14381;SDS011;7275;50.328;8.720;2022-07-29T01:07:04;2.23;;;1.50;;
14381;SDS011;7275;50.328;8.720;2022-07-29T01:09:33;1.70;;;1.40;;
14381;SDS011;7275;50.328;8.720;2022-07-29T01:12:13;5.60;;;1.83;;
14381;SDS011;7275;50.328;8.720;2022-07-29T01:14:43;3.03;;;1.60;;
14381;SDS011;7275;50.328;8.720;2022-07-29T01:17:14;3.93;;;1.47;;
14381;SDS011;7275;50.328;8.720;2022-07-29T01:19:48;2.97;;;1.70;;
14381;SDS011;7275;50.328;8.720;2022-07-29T01:22:27;3.27;;;1.60;;
14381;SDS011;7275;50.328;8.720;2022-07-29T01:25:05;3.13;;;1.40;;
14381;SDS011;7275;50.328;8.720;2022-07-29T01:27:47;3.33;;;1.30;;
14381;SDS011;7275;50.328;8.720;2022-07-29T01:30:28;2.33;;;1.50;;
14381;SDS011;7275;50.328;8.720;2022-07-29T01:33:00;2.20;;;1.60;;
14381;SDS011;7275;50.328;8.720;2022-07-29T01:35:33;1.50;;;1.30;;
14381;SDS011;7275;50.328;8.720;2022-07-29T01:38:06;2.27;;;1.50;;
14381;SDS011;7275;50.328;8.720;2022-07-29T01:40:39;1.67;;;1.47;;
14381;SDS011;7275;50.328;8.720;2022-07-29T01:43:11;1.70;;;1.50;;
14381;SDS011;7275;50.328;8.720;2022-07-29T01:45:45;1.70;;;1.40;;
14381;SDS011;7275;50.328;8.720;2022-07-29T01:48:18;3.00;;;1.40;;
14381;SDS011;7275;50.328;8.720;2022-07-29T01:50:51;1.57;;;1.47;;
14381;SDS011;7275;50.328;8.720;2022-07-29T01:53:25;3.83;;;1.47;;
14381;SDS011;7275;50.328;8.720;2022-07-29T01:56:03;6.03;;;1.83;;
14381;SDS011;7275;50.328;8.720;2022-07-29T01:58:33;1.67;;;1.50;;
14381;SDS011;7275;50.328;8.720;2022-07-29T02:01:07;4.03;;;1.60;;
14381;SDS011;7275;50.328;8.720;2022-07-29T02:03:37;4.80;;;1.60;;
14381;SDS011;7275;50.328;8.720;2022-07-29T02:06:06;2.77;;;1.43;;
14381;SDS011;7275;50.328;8.720;2022-07-29T02:08:35;2.23;;;1.60;;
14381;SDS011;7275;50.328;8.720;2022-07-29T02:11:06;2.77;;;1.40;;
14381;SDS011;7275;50.328;8.720;2022-07-29T02:13:35;5.00;;;1.80;;
14381;SDS011;7275;50.328;8.720;2022-07-29T02:16:05;1.67;;;1.50;;
14381;SDS011;7275;50.328;8.720;2022-07-29T02:18:37;1.70;;;1.43;;
14381;SDS011;7275;50.328;8.720;2022-07-29T02:21:07;2.13;;;1.50;;
14381;SDS011;7275;50.328;8.720;2022-07-29T02:23:41;2.23;;;1.60;;
14381;SDS011;7275;50.328;8.720;2022-07-29T02:26:17;1.70;;;1.60;;
14381;SDS011;7275;50.328;8.720;2022-07-29T02:28:46;2.00;;;1.60;;
14381;SDS011;7275;50.328;8.720;2022-07-29T02:31:17;1.63;;;1.30;;
14381;SDS011;7275;50.328;8.720;2022-07-29T02:33:48;2.13;;;1.57;;
14381;SDS011;7275;50.328;8.720;2022-07-29T02:36:18;2.00;;;1.50;;
14381;SDS011;7275;50.328;8.720;2022-07-29T02:38:49;2.67;;;1.60;;
14381;SDS011;7275;50.328;8.720;2022-07-29T02:41:18;1.97;;;1.43;;
14381;SDS011;7275;50.328;8.720;2022-07-29T02:43:57;1.67;;;1.50;;
14381;SDS011;7275;50.328;8.720;2022-07-29T02:46:30;1.63;;;1.50;;
14381;SDS011;7275;50.328;8.720;2022-07-29T02:49:02;2.70;;;1.57;;
14381;SDS011;7275;50.328;8.720;2022-07-29T02:51:40;1.80;;;1.40;;
14381;SDS011;7275;50.328;8.720;2022-07-29T02:54:11;2.67;;;1.50;;
14381;SDS011;7275;50.328;8.720;2022-07-29T02:56:49;1.77;;;1.50;;
14381;SDS011;7275;50.328;8.720;2022-07-29T02:59:20;2.57;;;1.70;;
14381;SDS011;7275;50.328;8.720;2022-07-29T03:01:53;1.70;;;1.33;;
14381;SDS011;7275;50.328;8.720;2022-07-29T03:04:22;3.33;;;1.60;;
14381;SDS011;7275;50.328;8.720;2022-07-29T03:06:55;1.93;;;1.57;;
14381;SDS011;7275;50.328;8.720;2022-07-29T03:09:26;1.53;;;1.43;;
14381;SDS011;7275;50.328;8.720;2022-07-29T03:11:55;2.23;;;1.50;;
14381;SDS011;7275;50.328;8.720;2022-07-29T03:14:24;2.00;;;1.57;;
14381;SDS011;7275;50.328;8.720;2022-07-29T03:16:53;3.43;;;1.80;;
14381;SDS011;7275;50.328;8.720;2022-07-29T03:19:21;2.93;;;1.60;;
14381;SDS011;7275;50.328;8.720;2022-07-29T03:21:49;1.67;;;1.50;;
14381;SDS011;7275;50.328;8.720;2022-07-29T03:24:26;1.70;;;1.40;;
14381;SDS011;7275;50.328;8.720;2022-07-29T03:26:55;2.00;;;1.63;;
14381;SDS011;7275;50.328;8.720;2022-07-29T03:29:24;2.23;;;1.50;;
14381;SDS011;7275;50.328;8.720;2022-07-29T03:32:01;2.13;;;1.70;;
14381;SDS011;7275;50.328;8.720;2022-07-29T03:34:33;2.10;;;1.50;;
14381;SDS011;7275;50.328;8.720;2022-07-29T03:37:01;1.80;;;1.50;;
14381;SDS011;7275;50.328;8.720;2022-07-29T03:39:29;1.60;;;1.47;;
14381;SDS011;7275;50.328;8.720;2022-07-29T03:42:00;3.50;;;1.40;;
14381;SDS011;7275;50.328;8.720;2022-07-29T03:44:29;1.47;;;1.37;;
14381;SDS011;7275;50.328;8.720;2022-07-29T03:47:00;2.73;;;1.70;;
14381;SDS011;7275;50.328;8.720;2022-07-29T03:49:31;2.57;;;1.70;;
14381;SDS011;7275;50.328;8.720;2022-07-29T03:52:03;2.53;;;1.53;;
14381;SDS011;7275;50.328;8.720;2022-07-29T03:54:31;1.47;;;1.30;;
14381;SDS011;7275;50.328;8.720;2022-07-29T03:56:59;2.77;;;1.60;;
14381;SDS011;7275;50.328;8.720;2022-07-29T03:59:28;2.30;;;1.63;;
14381;SDS011;7275;50.328;8.720;2022-07-29T04:01:57;2.50;;;1.60;;
14381;SDS011;7275;50.328;8.720;2022-07-29T04:04:28;2.50;;;1.80;;
14381;SDS011;7275;50.328;8.720;2022-07-29T04:06:56;2.83;;;1.70;;
14381;SDS011;7275;50.328;8.720;2022-07-29T04:09:23;2.60;;;1.70;;
14381;SDS011;7275;50.328;8.720;2022-07-29T04:11:51;1.90;;;1.50;;
14381;SDS011;7275;50.328;8.720;2022-07-29T04:14:29;2.10;;;1.37;;
14381;SDS011;7275;50.328;8.720;2022-07-29T04:16:57;2.67;;;1.50;;
14381;SDS011;7275;50.328;8.720;2022-07-29T04:19:24;1.90;;;1.70;;
14381;SDS011;7275;50.328;8.720;2022-07-29T04:21:53;3.07;;;1.73;;
14381;SDS011;7275;50.328;8.720;2022-07-29T04:24:22;3.30;;;1.70;;
14381;SDS011;7275;50.328;8.720;2022-07-29T04:26:50;6.27;;;2.13;;
14381;SDS011;7275;50.328;8.720;2022-07-29T04:29:17;3.90;;;2.03;;
14381;SDS011;7275;50.328;8.720;2022-07-29T04:31:45;3.47;;;1.77;;
14381;SDS011;7275;50.328;8.720;2022-07-29T04:34:13;3.53;;;1.80;;
14381;SDS011;7275;50.328;8.720;2022-07-29T04:36:41;2.63;;;2.00;;
14381;SDS011;7275;50.328;8.720;2022-07-29T04:39:10;2.73;;;1.80;;
14381;SDS011;7275;50.328;8.720;2022-07-29T04:41:37;3.63;;;2.17;;
14381;SDS011;7275;50.328;8.720;2022-07-29T04:44:05;4.47;;;2.30;;
14381;SDS011;7275;50.328;8.720;2022-07-29T04:46:34;2.80;;;1.80;;
14381;SDS011;7275;50.328;8.720;2022-07-29T04:49:02;4.33;;;1.90;;
14381;SDS011;7275;50.328;8.720;2022-07-29T04:51:30;2.20;;;1.80;;
14381;SDS011;7275;50.328;8.720;2022-07-29T04:53:58;2.80;;;2.07;;
14381;SDS011;7275;50.328;8.720;2022-07-29T04:56:27;3.03;;;2.07;;
14381;SDS011;7275;50.328;8.720;2022-07-29T04:58:54;2.53;;;1.90;;
14381;SDS011;7275;50.328;8.720;2022-07-29T05:01:22;3.60;;;2.00;;
14381;SDS011;7275;50.328;8.720;2022-07-29T05:03:49;2.60;;;2.07;;
14381;SDS011;7275;50.328;8.720;2022-07-29T05:06:22;4.10;;;2.20;;
14381;SDS011;7275;50.328;8.720;2022-07-29T05:08:49;3.13;;;2.03;;
14381;SDS011;7275;50.328;8.720;2022-07-29T05:11:17;2.53;;;1.90;;
14381;SDS011;7275;50.328;8.720;2022-07-29T05:13:50;2.27;;;1.87;;
14381;SDS011;7275;50.328;8.720;2022-07-29T05:16:18;2.70;;;2.00;;
14381;SDS011;7275;50.328;8.720;2022-07-29T05:18:45;2.30;;;2.00;;
14381;SDS011;7275;50.328;8.720;2022-07-29T05:21:13;3.07;;;2.10;;
14381;SDS011;7275;50.328;8.720;2022-07-29T05:23:40;2.00;;;1.80;;
14381;SDS011;7275;50.328;8.720;2022-07-29T05:26:08;2.63;;;1.80;;
14381;SDS011;7275;50.328;8.720;2022-07-29T05:28:35;2.47;;;2.07;;
14381;SDS011;7275;50.328;8.720;2022-07-29T05:31:05;3.70;;;2.00;;
14381;SDS011;7275;50.328;8.720;2022-07-29T05:33:32;3.07;;;2.30;;
14381;SDS011;7275;50.328;8.720;2022-07-29T05:36:02;2.50;;;1.97;;
14381;SDS011;7275;50.328;8.720;2022-07-29T05:38:31;2.07;;;1.80;;
14381;SDS011;7275;50.328;8.720;2022-07-29T05:40:59;3.50;;;1.87;;
14381;SDS011;7275;50.328;8.720;2022-07-29T05:43:27;1.93;;;1.80;;
14381;SDS011;7275;50.328;8.720;2022-07-29T05:45:55;2.43;;;1.87;;
14381;SDS011;7275;50.328;8.720;2022-07-29T05:48:24;2.13;;;1.93;;
14381;SDS011;7275;50.328;8.720;2022-07-29T05:50:51;4.80;;;2.03;;
14381;SDS011;7275;50.328;8.720;2022-07-29T05:53:19;2.03;;;1.83;;
14381;SDS011;7275;50.328;8.720;2022-07-29T05:55:47;2.67;;;2.00;;
14381;SDS011;7275;50.328;8.720;2022-07-29T05:58:15;2.00;;;1.80;;
14381;SDS011;7275;50.328;8.720;2022-07-29T06:00:43;3.70;;;1.70;;
14381;SDS011;7275;50.328;8.720;2022-07-29T06:03:10;2.43;;;1.90;;
14381;SDS011;7275;50.328;8.720;2022-07-29T06:05:40;1.87;;;1.70;;
14381;SDS011;7275;50.328;8.720;2022-07-29T06:08:07;2.90;;;2.00;;
14381;SDS011;7275;50.328;8.720;2022-07-29T06:10:35;3.40;;;1.80;;
14381;SDS011;7275;50.328;8.720;2022-07-29T06:13:02;2.07;;;1.83;;
14381;SDS011;7275;50.328;8.720;2022-07-29T06:15:30;2.77;;;1.80;;
14381;SDS011;7275;50.328;8.720;2022-07-29T06:17:58;2.03;;;1.80;;
14381;SDS011;7275;50.328;8.720;2022-07-29T06:20:27;2.97;;;1.90;;
14381;SDS011;7275;50.328;8.720;2022-07-29T06:22:58;3.27;;;2.03;;
14381;SDS011;7275;50.328;8.720;2022-07-29T06:25:26;2.83;;;1.83;;
14381;SDS011;7275;50.328;8.720;2022-07-29T06:27:55;2.77;;;1.90;;
14381;SDS011;7275;50.328;8.720;2022-07-29T06:30:22;3.60;;;2.10;;
14381;SDS011;7275;50.328;8.720;2022-07-29T06:32:50;2.00;;;1.80;;
14381;SDS011;7275;50.328;8.720;2022-07-29T06:35:18;2.37;;;1.90;;
14381;SDS011;7275;50.328;8.720;2022-07-29T06:38:06;3.07;;;1.90;;
14381;SDS011;7275;50.328;8.720;2022-07-29T06:40:54;2.77;;;2.00;;
14381;SDS011;7275;50.328;8.720;2022-07-29T06:43:29;2.63;;;1.80;;
14381;SDS011;7275;50.328;8.720;2022-07-29T06:45:59;2.53;;;1.97;;
14381;SDS011;7275;50.328;8.720;2022-07-29T06:48:28;2.30;;;2.00;;
14381;SDS011;7275;50.328;8.720;2022-07-29T06:50:55;2.27;;;1.83;;
14381;SDS011;7275;50.328;8.720;2022-07-29T06:53:24;2.97;;;1.90;;
14381;SDS011;7275;50.328;8.720;2022-07-29T06:55:52;2.87;;;2.00;;
14381;SDS011;7275;50.328;8.720;2022-07-29T06:58:20;3.70;;;2.20;;
14381;SDS011;7275;50.328;8.720;2022-07-29T07:00:48;3.77;;;2.23;;
14381;SDS011;7275;50.328;8.720;2022-07-29T07:03:15;2.63;;;1.77;;
14381;SDS011;7275;50.328;8.720;2022-07-29T07:05:44;4.20;;;1.90;;
14381;SDS011;7275;50.328;8.720;2022-07-29T07:08:12;2.30;;;2.00;;
14381;SDS011;7275;50.328;8.720;2022-07-29T07:10:43;2.92;;;2.20;;
14381;SDS011;7275;50.328;8.720;2022-07-29T07:13:11;3.80;;;2.10;;
14381;SDS011;7275;50.328;8.720;2022-07-29T07:15:38;4.88;;;2.10;;
14381;SDS011;7275;50.328;8.720;2022-07-29T07:18:06;3.67;;;2.30;;
14381;SDS011;7275;50.328;8.720;2022-07-29T07:20:34;4.43;;;2.30;;
14381;SDS011;7275;50.328;8.720;2022-07-29T07:23:03;2.85;;;2.22;;
14381;SDS011;7275;50.328;8.720;2022-07-29T07:25:31;3.58;;;2.40;;
14381;SDS011;7275;50.328;8.720;2022-07-29T07:28:00;3.30;;;2.50;;
14381;SDS011;7275;50.328;8.720;2022-07-29T07:30:28;3.03;;;2.10;;
14381;SDS011;7275;50.328;8.720;2022-07-29T07:32:55;3.63;;;2.17;;
14381;SDS011;7275;50.328;8.720;2022-07-29T07:35:23;3.42;;;2.20;;
14381;SDS011;7275;50.328;8.720;2022-07-29T07:37:50;2.83;;;2.20;;
14381;SDS011;7275;50.328;8.720;2022-07-29T07:40:18;2.75;;;2.20;;
14381;SDS011;7275;50.328;8.720;2022-07-29T07:42:45;3.38;;;2.05;;
14381;SDS011;7275;50.328;8.720;2022-07-29T07:45:15;2.53;;;2.08;;
14381;SDS011;7275;50.328;8.720;2022-07-29T07:47:43;2.20;;;2.00;;
14381;SDS011;7275;50.328;8.720;2022-07-29T07:50:11;2.85;;;1.92;;
14381;SDS011;7275;50.328;8.720;2022-07-29T07:52:47;3.33;;;2.25;;
14381;SDS011;7275;50.328;8.720;2022-07-29T07:55:16;2.55;;;1.98;;
14381;SDS011;7275;50.328;8.720;2022-07-29T07:57:44;2.20;;;1.80;;
14381;SDS011;7275;50.328;8.720;2022-07-29T08:00:12;2.90;;;2.00;;
14381;SDS011;7275;50.328;8.720;2022-07-29T08:02:42;2.67;;;1.98;;
14381;SDS011;7275;50.328;8.720;2022-07-29T08:05:11;3.15;;;1.88;;
14381;SDS011;7275;50.328;8.720;2022-07-29T08:07:43;3.38;;;2.20;;
14381;SDS011;7275;50.328;8.720;2022-07-29T08:10:12;2.63;;;2.00;;
14381;SDS011;7275;50.328;8.720;2022-07-29T08:12:41;2.75;;;2.00;;
14381;SDS011;7275;50.328;8.720;2022-07-29T08:15:08;3.40;;;1.80;;
14381;SDS011;7275;50.328;8.720;2022-07-29T08:17:37;3.08;;;1.90;;
14381;SDS011;7275;50.328;8.720;2022-07-29T08:20:05;3.15;;;1.90;;
14381;SDS011;7275;50.328;8.720;2022-07-29T08:22:33;3.47;;;1.95;;
14381;SDS011;7275;50.328;8.720;2022-07-29T08:25:01;1.92;;;1.73;;
14381;SDS011;7275;50.328;8.720;2022-07-29T08:27:28;3.88;;;2.10;;
14381;SDS011;7275;50.328;8.720;2022-07-29T08:30:09;3.30;;;1.90;;
14381;SDS011;7275;50.328;8.720;2022-07-29T08:32:38;2.40;;;1.92;;
14381;SDS011;7275;50.328;8.720;2022-07-29T08:35:19;2.55;;;1.90;;
14381;SDS011;7275;50.328;8.720;2022-07-29T08:37:47;3.90;;;1.90;;
14381;SDS011;7275;50.328;8.720;2022-07-29T08:40:15;2.50;;;1.70;;
14381;SDS011;7275;50.328;8.720;2022-07-29T08:42:43;2.85;;;1.98;;
14381;SDS011;7275;50.328;8.720;2022-07-29T08:45:11;2.80;;;2.00;;
14381;SDS011;7275;50.328;8.720;2022-07-29T08:47:40;3.05;;;1.80;;
14381;SDS011;7275;50.328;8.720;2022-07-29T08:50:08;6.15;;;1.98;;
14381;SDS011;7275;50.328;8.720;2022-07-29T08:52:37;3.10;;;2.20;;
14381;SDS011;7275;50.328;8.720;2022-07-29T08:55:08;2.50;;;1.98;;
14381;SDS011;7275;50.328;8.720;2022-07-29T08:57:37;2.33;;;1.90;;
14381;SDS011;7275;50.328;8.720;2022-07-29T09:00:17;3.45;;;1.85;;
14381;SDS011;7275;50.328;8.720;2022-07-29T09:02:47;1.90;;;1.67;;
14381;SDS011;7275;50.328;8.720;2022-07-29T09:05:21;2.33;;;1.80;;
14381;SDS011;7275;50.328;8.720;2022-07-29T09:07:50;2.75;;;1.75;;
14381;SDS011;7275;50.328;8.720;2022-07-29T09:10:19;4.10;;;2.20;;
14381;SDS011;7275;50.328;8.720;2022-07-29T09:12:46;2.60;;;1.90;;
14381;SDS011;7275;50.328;8.720;2022-07-29T09:15:14;3.00;;;2.00;;
14381;SDS011;7275;50.328;8.720;2022-07-29T09:17:43;4.18;;;1.85;;
14381;SDS011;7275;50.328;8.720;2022-07-29T09:20:13;3.05;;;2.00;;
14381;SDS011;7275;50.328;8.720;2022-07-29T09:22:42;2.13;;;1.92;;
14381;SDS011;7275;50.328;8.720;2022-07-29T09:25:13;3.78;;;1.98;;
14381;SDS011;7275;50.328;8.720;2022-07-29T09:27:40;2.65;;;1.75;;
14381;SDS011;7275;50.328;8.720;2022-07-29T09:30:08;3.92;;;2.00;;
14381;SDS011;7275;50.328;8.720;2022-07-29T09:35:25;3.15;;;1.80;;
14381;SDS011;7275;50.328;8.720;2022-07-29T09:37:53;2.85;;;1.70;;
14381;SDS011;7275;50.328;8.720;2022-07-29T09:40:22;3.53;;;1.90;;
14381;SDS011;7275;50.328;8.720;2022-07-29T09:42:51;2.30;;;1.85;;
14381;SDS011;7275;50.328;8.720;2022-07-29T09:45:26;4.03;;;1.90;;
14381;SDS011;7275;50.328;8.720;2022-07-29T09:47:58;4.47;;;1.90;;
14381;SDS011;7275;50.328;8.720;2022-07-29T09:50:37;1.73;;;1.63;;
14381;SDS011;7275;50.328;8.720;2022-07-29T09:53:05;2.45;;;1.88;;
14381;SDS011;7275;50.328;8.720;2022-07-29T09:55:45;2.78;;;1.80;;
14381;SDS011;7275;50.328;8.720;2022-07-29T09:58:15;2.47;;;1.77;;
14381;SDS011;7275;50.328;8.720;2022-07-29T10:00:45;1.90;;;1.70;;
14381;SDS011;7275;50.328;8.720;2022-07-29T10:03:13;3.30;;;1.88;;
14381;SDS011;7275;50.328;8.720;2022-07-29T10:05:43;2.92;;;1.85;;
14381;SDS011;7275;50.328;8.720;2022-07-29T10:08:12;2.17;;;1.75;;
14381;SDS011;7275;50.328;8.720;2022-07-29T10:10:40;1.98;;;1.83;;
14381;SDS011;7275;50.328;8.720;2022-07-29T10:13:10;3.22;;;2.00;;
14381;SDS011;7275;50.328;8.720;2022-07-29T10:15:41;2.83;;;1.90;;
14381;SDS011;7275;50.328;8.720;2022-07-29T10:18:14;2.10;;;1.90;;
14381;SDS011;7275;50.328;8.720;2022-07-29T10:20:44;2.22;;;1.90;;
14381;SDS011;7275;50.328;8.720;2022-07-29T10:23:12;3.72;;;1.98;;
14381;SDS011;7275;50.328;8.720;2022-07-29T10:25:40;3.65;;;2.80;;
14381;SDS011;7275;50.328;8.720;2022-07-29T10:28:11;5.07;;;2.30;;
14381;SDS011;7275;50.328;8.720;2022-07-29T10:30:42;2.97;;;2.13;;
14381;SDS011;7275;50.328;8.720;2022-07-29T10:33:17;2.70;;;2.13;;
14381;SDS011;7275;50.328;8.720;2022-07-29T10:36:07;2.95;;;2.20;;
14381;SDS011;7275;50.328;8.720;2022-07-29T10:38:50;2.78;;;2.10;;
14381;SDS011;7275;50.328;8.720;2022-07-29T10:41:34;3.22;;;2.03;;
14381;SDS011;7275;50.328;8.720;2022-07-29T10:44:13;3.03;;;1.92;;
14381;SDS011;7275;50.328;8.720;2022-07-29T10:46:48;2.00;;;1.80;;
14381;SDS011;7275;50.328;8.720;2022-07-29T10:49:17;2.92;;;1.80;;
14381;SDS011;7275;50.328;8.720;2022-07-29T10:51:58;2.20;;;1.60;;
14381;SDS011;7275;50.328;8.720;2022-07-29T10:54:44;3.22;;;1.80;;
14381;SDS011;7275;50.328;8.720;2022-07-29T10:57:14;2.47;;;1.80;;
14381;SDS011;7275;50.328;8.720;2022-07-29T10:59:46;2.40;;;1.90;;
14381;SDS011;7275;50.328;8.720;2022-07-29T11:05:18;1.60;;;1.50;;
14381;SDS011;7275;50.328;8.720;2022-07-29T11:14:00;4.63;;;1.73;;
14381;SDS011;7275;50.328;8.720;2022-07-29T11:16:57;1.80;;;1.67;;
14381;SDS011;7275;50.328;8.720;2022-07-29T11:19:26;2.00;;;1.80;;
14381;SDS011;7275;50.328;8.720;2022-07-29T11:21:56;2.13;;;1.73;;
14381;SDS011;7275;50.328;8.720;2022-07-29T11:24:24;2.10;;;1.65;;
14381;SDS011;7275;50.328;8.720;2022-07-29T11:27:08;1.90;;;1.60;;
14381;SDS011;7275;50.328;8.720;2022-07-29T11:29:39;1.90;;;1.67;;
14381;SDS011;7275;50.328;8.720;2022-07-29T11:32:15;2.20;;;1.58;;
14381;SDS011;7275;50.328;8.720;2022-07-29T11:35:10;2.28;;;1.70;;
14381;SDS011;7275;50.328;8.720;2022-07-29T11:37:44;2.35;;;1.63;;
14381;SDS011;7275;50.328;8.720;2022-07-29T11:40:21;2.08;;;1.70;;
14381;SDS011;7275;50.328;8.720;2022-07-29T11:42:49;1.88;;;1.63;;
14381;SDS011;7275;50.328;8.720;2022-07-29T11:45:31;2.20;;;1.60;;
14381;SDS011;7275;50.328;8.720;2022-07-29T11:48:17;2.30;;;1.80;;
14381;SDS011;7275;50.328;8.720;2022-07-29T11:51:09;1.80;;;1.60;;
14381;SDS011;7275;50.328;8.720;2022-07-29T11:53:38;2.13;;;1.77;;
14381;SDS011;7275;50.328;8.720;2022-07-29T11:56:07;3.03;;;1.77;;
14381;SDS011;7275;50.328;8.720;2022-07-29T11:58:41;2.28;;;1.88;;
14381;SDS011;7275;50.328;8.720;2022-07-29T12:01:12;2.17;;;1.70;;
14381;SDS011;7275;50.328;8.720;2022-07-29T12:03:40;2.55;;;1.67;;
14381;SDS011;7275;50.328;8.720;2022-07-29T12:06:29;3.17;;;1.90;;
14381;SDS011;7275;50.328;8.720;2022-07-29T12:08:57;2.15;;;1.80;;
14381;SDS011;7275;50.328;8.720;2022-07-29T12:11:26;2.58;;;1.63;;
14381;SDS011;7275;50.328;8.720;2022-07-29T12:13:54;2.00;;;1.80;;
14381;SDS011;7275;50.328;8.720;2022-07-29T12:16:21;2.10;;;1.70;;
14381;SDS011;7275;50.328;8.720;2022-07-29T12:18:58;1.98;;;1.80;;
14381;SDS011;7275;50.328;8.720;2022-07-29T12:21:27;2.28;;;2.08;;
14381;SDS011;7275;50.328;8.720;2022-07-29T12:24:21;2.25;;;1.60;;
14381;SDS011;7275;50.328;8.720;2022-07-29T12:26:52;4.50;;;2.00;;
14381;SDS011;7275;50.328;8.720;2022-07-29T12:29:22;2.75;;;1.80;;
14381;SDS011;7275;50.328;8.720;2022-07-29T12:32:01;2.05;;;1.52;;
14381;SDS011;7275;50.328;8.720;2022-07-29T12:34:30;2.22;;;1.88;;
14381;SDS011;7275;50.328;8.720;2022-07-29T12:37:00;1.90;;;1.70;;
14381;SDS011;7275;50.328;8.720;2022-07-29T12:39:27;2.15;;;1.80;;
14381;SDS011;7275;50.328;8.720;2022-07-29T12:41:55;1.48;;;1.38;;
14381;SDS011;7275;50.328;8.720;2022-07-29T12:44:42;2.00;;;1.80;;
14381;SDS011;7275;50.328;8.720;2022-07-29T12:47:10;2.75;;;1.90;;
14381;SDS011;7275;50.328;8.720;2022-07-29T12:49:38;2.08;;;1.50;;
14381;SDS011;7275;50.328;8.720;2022-07-29T12:54:53;1.98;;;1.67;;
14381;SDS011;7275;50.328;8.720;2022-07-29T12:57:20;1.83;;;1.60;;
14381;SDS011;7275;50.328;8.720;2022-07-29T12:59:58;1.70;;;1.60;;
14381;SDS011;7275;50.328;8.720;2022-07-29T13:02:35;2.17;;;1.40;;
14381;SDS011;7275;50.328;8.720;2022-07-29T13:05:03;1.88;;;1.70;;
14381;SDS011;7275;50.328;8.720;2022-07-29T13:07:34;1.83;;;1.52;;
14381;SDS011;7275;50.328;8.720;2022-07-29T13:10:22;1.90;;;1.70;;
14381;SDS011;7275;50.328;8.720;2022-07-29T13:13:03;1.60;;;1.50;;
14381;SDS011;7275;50.328;8.720;2022-07-29T13:15:32;1.75;;;1.50;;
14381;SDS011;7275;50.328;8.720;2022-07-29T13:18:01;2.28;;;1.50;;
14381;SDS011;7275;50.328;8.720;2022-07-29T13:20:29;2.70;;;1.50;;
14381;SDS011;7275;50.328;8.720;2022-07-29T13:22:58;2.28;;;1.50;;
14381;SDS011;7275;50.328;8.720;2022-07-29T13:25:27;1.60;;;1.50;;
14381;SDS011;7275;50.328;8.720;2022-07-29T13:27:56;1.92;;;1.70;;
14381;SDS011;7275;50.328;8.720;2022-07-29T13:30:24;1.85;;;1.55;;
14381;SDS011;7275;50.328;8.720;2022-07-29T13:32:52;2.65;;;1.80;;
14381;SDS011;7275;50.328;8.720;2022-07-29T13:35:21;1.60;;;1.50;;
14381;SDS011;7275;50.328;8.720;2022-07-29T13:37:48;1.60;;;1.50;;
14381;SDS011;7275;50.328;8.720;2022-07-29T13:40:18;2.92;;;1.55;;
14381;SDS011;7275;50.328;8.720;2022-07-29T13:42:46;1.85;;;1.70;;
14381;SDS011;7275;50.328;8.720;2022-07-29T13:45:14;2.30;;;1.67;;
14381;SDS011;7275;50.328;8.720;2022-07-29T13:47:41;1.75;;;1.65;;
14381;SDS011;7275;50.328;8.720;2022-07-29T13:50:14;2.15;;;1.80;;
14381;SDS011;7275;50.328;8.720;2022-07-29T13:52:42;1.77;;;1.67;;
14381;SDS011;7275;50.328;8.720;2022-07-29T13:55:09;1.83;;;1.70;;
14381;SDS011;7275;50.328;8.720;2022-07-29T13:57:38;1.75;;;1.60;;
14381;SDS011;7275;50.328;8.720;2022-07-29T14:00:06;2.25;;;1.65;;
14381;SDS011;7275;50.328;8.720;2022-07-29T14:02:35;2.00;;;1.77;;
14381;SDS011;7275;50.328;8.720;2022-07-29T14:05:04;1.80;;;1.70;;
14381;SDS011;7275;50.328;8.720;2022-07-29T14:07:34;2.00;;;1.80;;
14381;SDS011;7275;50.328;8.720;2022-07-29T14:10:01;2.75;;;1.65;;
14381;SDS011;7275;50.328;8.720;2022-07-29T14:12:30;1.98;;;1.67;;
14381;SDS011;7275;50.328;8.720;2022-07-29T14:14:59;2.38;;;1.70;;
14381;SDS011;7275;50.328;8.720;2022-07-29T14:17:26;1.73;;;1.63;;
14381;SDS011;7275;50.328;8.720;2022-07-29T14:19:54;2.10;;;1.90;;
14381;SDS011;7275;50.328;8.720;2022-07-29T14:22:21;1.90;;;1.80;;
14381;SDS011;7275;50.328;8.720;2022-07-29T14:24:51;2.20;;;1.60;;
14381;SDS011;7275;50.328;8.720;2022-07-29T14:27:19;2.13;;;1.67;;
14381;SDS011;7275;50.328;8.720;2022-07-29T14:30:05;2.30;;;1.70;;
14381;SDS011;7275;50.328;8.720;2022-07-29T14:32:33;1.98;;;1.70;;
14381;SDS011;7275;50.328;8.720;2022-07-29T14:35:01;2.13;;;1.90;;
14381;SDS011;7275;50.328;8.720;2022-07-29T14:37:28;1.85;;;1.75;;
14381;SDS011;7275;50.328;8.720;2022-07-29T14:40:06;1.88;;;1.77;;
14381;SDS011;7275;50.328;8.720;2022-07-29T14:42:34;1.92;;;1.73;;
14381;SDS011;7275;50.328;8.720;2022-07-29T14:45:05;1.67;;;1.55;;
14381;SDS011;7275;50.328;8.720;2022-07-29T14:47:33;1.80;;;1.70;;
14381;SDS011;7275;50.328;8.720;2022-07-29T14:50:01;2.38;;;2.03;;
14381;SDS011;7275;50.328;8.720;2022-07-29T14:52:30;2.42;;;1.90;;
14381;SDS011;7275;50.328;8.720;2022-07-29T14:54:57;2.10;;;1.70;;
14381;SDS011;7275;50.328;8.720;2022-07-29T14:57:25;2.08;;;1.90;;
14381;SDS011;7275;50.328;8.720;2022-07-29T14:59:53;2.30;;;2.03;;
14381;SDS011;7275;50.328;8.720;2022-07-29T15:02:21;3.45;;;2.10;;
14381;SDS011;7275;50.328;8.720;2022-07-29T15:05:09;2.20;;;2.00;;
14381;SDS011;7275;50.328;8.720;2022-07-29T15:07:36;2.92;;;2.10;;
14381;SDS011;7275;50.328;8.720;2022-07-29T15:10:04;2.33;;;2.03;;
14381;SDS011;7275;50.328;8.720;2022-07-29T15:12:33;2.55;;;1.95;;
14381;SDS011;7275;50.328;8.720;2022-07-29T15:15:01;2.45;;;2.10;;
14381;SDS011;7275;50.328;8.720;2022-07-29T15:17:30;2.28;;;2.10;;
14381;SDS011;7275;50.328;8.720;2022-07-29T15:19:57;2.30;;;2.10;;
14381;SDS011;7275;50.328;8.720;2022-07-29T15:22:25;2.40;;;2.15;;
14381;SDS011;7275;50.328;8.720;2022-07-29T15:24:53;2.55;;;2.20;;
14381;SDS011;7275;50.328;8.720;2022-07-29T15:27:20;3.65;;;2.05;;
14381;SDS011;7275;50.328;8.720;2022-07-29T15:29:48;2.95;;;2.22;;
14381;SDS011;7275;50.328;8.720;2022-07-29T15:32:15;2.58;;;1.92;;
14381;SDS011;7275;50.328;8.720;2022-07-29T15:34:45;2.75;;;2.20;;